sensor_id;sensor_type;location;lat;lon;timestamp;P1;durP1;ratioP1;P2;durP2;ratioP2
42296;SDS011;28985;47.456;19.016;2022-08-21T00:01:33;3.72;;;3.53;;
42296;SDS011;28985;47.456;19.016;2022-08-21T00:04:04;3.78;;;3.42;;
42296;SDS011;28985;47.456;19.016;2022-08-21T00:06:32;3.10;;;2.92;;
42296;SDS011;28985;47.456;19.016;2022-08-21T00:09:00;3.35;;;3.05;;
42296;SDS011;28985;47.456;19.016;2022-08-21T00:11:32;3.15;;;2.95;;
42296;SDS011;28985;47.456;19.016;2022-08-21T00:14:01;3.13;;;2.83;;
42296;SDS011;28985;47.456;19.016;2022-08-21T00:16:28;4.85;;;3.10;;
42296;SDS011;28985;47.456;19.016;2022-08-21T00:18:55;3.40;;;3.28;;
42296;SDS011;28985;47.456;19.016;2022-08-21T00:21:21;3.63;;;3.22;;
42296;SDS011;28985;47.456;19.016;2022-08-21T00:23:48;3.08;;;2.88;;
42296;SDS011;28985;47.456;19.016;2022-08-21T00:26:15;4.68;;;4.28;;
42296;SDS011;28985;47.456;19.016;2022-08-21T00:28:41;5.40;;;3.83;;
42296;SDS011;28985;47.456;19.016;2022-08-21T00:31:08;3.22;;;2.92;;
42296;SDS011;28985;47.456;19.016;2022-08-21T00:33:35;3.45;;;3.25;;
42296;SDS011;28985;47.456;19.016;2022-08-21T00:36:01;3.80;;;3.50;;
42296;SDS011;28985;47.456;19.016;2022-08-21T00:38:29;3.83;;;3.55;;
42296;SDS011;28985;47.456;19.016;2022-08-21T00:40:57;4.50;;;3.75;;
42296;SDS011;28985;47.456;19.016;2022-08-21T00:43:45;5.32;;;4.53;;
42296;SDS011;28985;47.456;19.016;2022-08-21T00:46:12;7.57;;;5.10;;
42296;SDS011;28985;47.456;19.016;2022-08-21T00:48:38;6.88;;;6.25;;
42296;SDS011;28985;47.456;19.016;2022-08-21T00:51:17;4.63;;;4.25;;
42296;SDS011;28985;47.456;19.016;2022-08-21T00:53:50;4.43;;;4.13;;
42296;SDS011;28985;47.456;19.016;2022-08-21T00:56:21;5.35;;;5.05;;
42296;SDS011;28985;47.456;19.016;2022-08-21T00:58:52;4.35;;;3.95;;
42296;SDS011;28985;47.456;19.016;2022-08-21T01:01:20;4.32;;;4.03;;
42296;SDS011;28985;47.456;19.016;2022-08-21T01:03:47;3.78;;;3.45;;
42296;SDS011;28985;47.456;19.016;2022-08-21T01:06:15;4.93;;;4.53;;
42296;SDS011;28985;47.456;19.016;2022-08-21T01:08:42;4.38;;;4.07;;
42296;SDS011;28985;47.456;19.016;2022-08-21T01:11:12;6.03;;;5.43;;
42296;SDS011;28985;47.456;19.016;2022-08-21T01:13:40;4.50;;;4.18;;
42296;SDS011;28985;47.456;19.016;2022-08-21T01:16:12;5.07;;;4.55;;
42296;SDS011;28985;47.456;19.016;2022-08-21T01:18:43;5.32;;;4.85;;
42296;SDS011;28985;47.456;19.016;2022-08-21T01:21:15;4.85;;;4.32;;
42296;SDS011;28985;47.456;19.016;2022-08-21T01:23:45;5.20;;;4.72;;
42296;SDS011;28985;47.456;19.016;2022-08-21T01:26:16;5.30;;;4.90;;
42296;SDS011;28985;47.456;19.016;2022-08-21T01:29:05;6.15;;;5.65;;
42296;SDS011;28985;47.456;19.016;2022-08-21T01:31:38;5.22;;;4.82;;
42296;SDS011;28985;47.456;19.016;2022-08-21T01:34:05;6.95;;;6.35;;
42296;SDS011;28985;47.456;19.016;2022-08-21T01:36:33;7.13;;;6.47;;
42296;SDS011;28985;47.456;19.016;2022-08-21T01:39:00;6.30;;;5.80;;
42296;SDS011;28985;47.456;19.016;2022-08-21T01:41:27;6.47;;;5.90;;
42296;SDS011;28985;47.456;19.016;2022-08-21T01:43:54;7.07;;;6.38;;
42296;SDS011;28985;47.456;19.016;2022-08-21T01:46:20;6.32;;;5.82;;
42296;SDS011;28985;47.456;19.016;2022-08-21T01:48:47;5.88;;;5.47;;
42296;SDS011;28985;47.456;19.016;2022-08-21T01:51:13;5.85;;;5.35;;
42296;SDS011;28985;47.456;19.016;2022-08-21T01:53:40;6.45;;;5.95;;
42296;SDS011;28985;47.456;19.016;2022-08-21T01:56:08;6.47;;;5.45;;
42296;SDS011;28985;47.456;19.016;2022-08-21T01:58:39;5.10;;;4.53;;
42296;SDS011;28985;47.456;19.016;2022-08-21T02:01:06;7.30;;;5.60;;
42296;SDS011;28985;47.456;19.016;2022-08-21T02:03:33;5.72;;;5.13;;
42296;SDS011;28985;47.456;19.016;2022-08-21T02:06:02;5.63;;;5.10;;
42296;SDS011;28985;47.456;19.016;2022-08-21T02:08:29;6.70;;;6.00;;
42296;SDS011;28985;47.456;19.016;2022-08-21T02:10:56;6.95;;;6.28;;
42296;SDS011;28985;47.456;19.016;2022-08-21T02:13:23;7.45;;;6.78;;
42296;SDS011;28985;47.456;19.016;2022-08-21T02:15:49;6.20;;;5.70;;
42296;SDS011;28985;47.456;19.016;2022-08-21T02:18:16;7.28;;;6.07;;
42296;SDS011;28985;47.456;19.016;2022-08-21T02:20:44;7.95;;;6.47;;
42296;SDS011;28985;47.456;19.016;2022-08-21T02:23:14;7.07;;;6.50;;
42296;SDS011;28985;47.456;19.016;2022-08-21T02:25:40;6.15;;;5.57;;
42296;SDS011;28985;47.456;19.016;2022-08-21T02:28:14;6.25;;;5.75;;
42296;SDS011;28985;47.456;19.016;2022-08-21T02:30:43;7.10;;;6.03;;
42296;SDS011;28985;47.456;19.016;2022-08-21T02:33:12;6.30;;;5.70;;
42296;SDS011;28985;47.456;19.016;2022-08-21T02:35:39;5.53;;;5.05;;
42296;SDS011;28985;47.456;19.016;2022-08-21T02:38:09;9.30;;;6.25;;
42296;SDS011;28985;47.456;19.016;2022-08-21T02:40:39;7.00;;;6.32;;
42296;SDS011;28985;47.456;19.016;2022-08-21T02:43:16;5.60;;;5.07;;
42296;SDS011;28985;47.456;19.016;2022-08-21T02:45:44;6.18;;;5.68;;
42296;SDS011;28985;47.456;19.016;2022-08-21T02:48:13;7.00;;;6.40;;
42296;SDS011;28985;47.456;19.016;2022-08-21T02:50:43;6.57;;;6.07;;
42296;SDS011;28985;47.456;19.016;2022-08-21T02:53:13;7.75;;;6.97;;
42296;SDS011;28985;47.456;19.016;2022-08-21T02:55:46;6.53;;;5.93;;
42296;SDS011;28985;47.456;19.016;2022-08-21T02:58:14;6.50;;;5.78;;
42296;SDS011;28985;47.456;19.016;2022-08-21T03:00:44;9.73;;;6.93;;
42296;SDS011;28985;47.456;19.016;2022-08-21T03:03:11;6.82;;;6.22;;
42296;SDS011;28985;47.456;19.016;2022-08-21T03:05:39;7.55;;;6.65;;
42296;SDS011;28985;47.456;19.016;2022-08-21T03:08:07;8.75;;;6.95;;
42296;SDS011;28985;47.456;19.016;2022-08-21T03:10:40;8.00;;;6.50;;
42296;SDS011;28985;47.456;19.016;2022-08-21T03:13:10;9.20;;;6.53;;
42296;SDS011;28985;47.456;19.016;2022-08-21T03:15:37;6.85;;;6.35;;
42296;SDS011;28985;47.456;19.016;2022-08-21T03:18:04;7.57;;;6.88;;
42296;SDS011;28985;47.456;19.016;2022-08-21T03:20:31;7.13;;;6.47;;
42296;SDS011;28985;47.456;19.016;2022-08-21T03:22:58;7.05;;;6.35;;
42296;SDS011;28985;47.456;19.016;2022-08-21T03:25:26;6.72;;;6.07;;
42296;SDS011;28985;47.456;19.016;2022-08-21T03:28:08;7.63;;;6.85;;
42296;SDS011;28985;47.456;19.016;2022-08-21T03:30:40;6.50;;;6.00;;
42296;SDS011;28985;47.456;19.016;2022-08-21T03:33:09;7.70;;;6.90;;
42296;SDS011;28985;47.456;19.016;2022-08-21T03:35:41;6.22;;;5.72;;
42296;SDS011;28985;47.456;19.016;2022-08-21T03:38:13;5.75;;;5.35;;
42296;SDS011;28985;47.456;19.016;2022-08-21T03:40:40;6.00;;;5.50;;
42296;SDS011;28985;47.456;19.016;2022-08-21T03:43:08;5.95;;;5.40;;
42296;SDS011;28985;47.456;19.016;2022-08-21T03:45:36;6.72;;;6.13;;
42296;SDS011;28985;47.456;19.016;2022-08-21T03:48:03;7.18;;;6.50;;
42296;SDS011;28985;47.456;19.016;2022-08-21T03:50:33;7.13;;;6.53;;
42296;SDS011;28985;47.456;19.016;2022-08-21T03:53:07;7.88;;;6.05;;
42296;SDS011;28985;47.456;19.016;2022-08-21T03:55:42;6.75;;;6.05;;
42296;SDS011;28985;47.456;19.016;2022-08-21T03:58:09;7.53;;;5.97;;
42296;SDS011;28985;47.456;19.016;2022-08-21T04:00:43;6.47;;;5.93;;
42296;SDS011;28985;47.456;19.016;2022-08-21T04:03:10;8.35;;;6.32;;
42296;SDS011;28985;47.456;19.016;2022-08-21T04:05:37;6.90;;;6.18;;
42296;SDS011;28985;47.456;19.016;2022-08-21T04:08:04;7.75;;;6.70;;
42296;SDS011;28985;47.456;19.016;2022-08-21T04:10:33;7.72;;;7.07;;
42296;SDS011;28985;47.456;19.016;2022-08-21T04:13:01;6.85;;;6.28;;
42296;SDS011;28985;47.456;19.016;2022-08-21T04:15:29;7.30;;;6.70;;
42296;SDS011;28985;47.456;19.016;2022-08-21T04:17:56;6.53;;;5.93;;
42296;SDS011;28985;47.456;19.016;2022-08-21T04:20:22;6.75;;;6.25;;
42296;SDS011;28985;47.456;19.016;2022-08-21T04:22:49;7.38;;;5.78;;
42296;SDS011;28985;47.456;19.016;2022-08-21T04:25:18;9.80;;;6.47;;
42296;SDS011;28985;47.456;19.016;2022-08-21T04:27:47;6.68;;;5.88;;
42296;SDS011;28985;47.456;19.016;2022-08-21T04:30:14;11.20;;;6.35;;
42296;SDS011;28985;47.456;19.016;2022-08-21T04:32:43;8.88;;;6.55;;
42296;SDS011;28985;47.456;19.016;2022-08-21T04:35:19;7.45;;;6.53;;
42296;SDS011;28985;47.456;19.016;2022-08-21T04:37:47;7.63;;;6.53;;
42296;SDS011;28985;47.456;19.016;2022-08-21T04:40:16;7.63;;;5.70;;
42296;SDS011;28985;47.456;19.016;2022-08-21T04:43:06;6.43;;;5.82;;
42296;SDS011;28985;47.456;19.016;2022-08-21T04:45:34;9.13;;;6.95;;
42296;SDS011;28985;47.456;19.016;2022-08-21T04:48:05;8.18;;;6.63;;
42296;SDS011;28985;47.456;19.016;2022-08-21T04:50:41;7.68;;;6.30;;
42296;SDS011;28985;47.456;19.016;2022-08-21T04:53:16;6.72;;;5.97;;
42296;SDS011;28985;47.456;19.016;2022-08-21T04:56:07;6.57;;;5.75;;
42296;SDS011;28985;47.456;19.016;2022-08-21T04:58:39;5.35;;;4.85;;
42296;SDS011;28985;47.456;19.016;2022-08-21T05:01:11;6.25;;;5.30;;
42296;SDS011;28985;47.456;19.016;2022-08-21T05:03:42;5.47;;;4.95;;
42296;SDS011;28985;47.456;19.016;2022-08-21T05:06:12;5.55;;;5.05;;
42296;SDS011;28985;47.456;19.016;2022-08-21T05:08:41;5.63;;;5.20;;
42296;SDS011;28985;47.456;19.016;2022-08-21T05:11:10;6.05;;;5.55;;
42296;SDS011;28985;47.456;19.016;2022-08-21T05:13:37;6.30;;;5.70;;
42296;SDS011;28985;47.456;19.016;2022-08-21T05:16:04;6.03;;;5.53;;
42296;SDS011;28985;47.456;19.016;2022-08-21T05:18:31;7.30;;;5.72;;
42296;SDS011;28985;47.456;19.016;2022-08-21T05:20:57;5.72;;;5.20;;
42296;SDS011;28985;47.456;19.016;2022-08-21T05:23:24;7.20;;;5.80;;
42296;SDS011;28985;47.456;19.016;2022-08-21T05:25:52;6.10;;;5.22;;
42296;SDS011;28985;47.456;19.016;2022-08-21T05:28:19;5.68;;;4.90;;
42296;SDS011;28985;47.456;19.016;2022-08-21T05:30:46;6.35;;;5.35;;
42296;SDS011;28985;47.456;19.016;2022-08-21T05:33:12;6.43;;;4.70;;
42296;SDS011;28985;47.456;19.016;2022-08-21T05:35:39;6.03;;;4.22;;
42296;SDS011;28985;47.456;19.016;2022-08-21T05:38:06;7.63;;;4.13;;
42296;SDS011;28985;47.456;19.016;2022-08-21T05:40:43;4.35;;;4.05;;
42296;SDS011;28985;47.456;19.016;2022-08-21T05:43:11;6.15;;;4.15;;
42296;SDS011;28985;47.456;19.016;2022-08-21T05:45:37;6.07;;;4.10;;
42296;SDS011;28985;47.456;19.016;2022-08-21T05:48:17;5.47;;;4.95;;
42296;SDS011;28985;47.456;19.016;2022-08-21T05:50:46;5.25;;;4.18;;
42296;SDS011;28985;47.456;19.016;2022-08-21T05:53:14;4.22;;;3.92;;
42296;SDS011;28985;47.456;19.016;2022-08-21T05:55:42;5.13;;;4.63;;
42296;SDS011;28985;47.456;19.016;2022-08-21T05:58:15;7.43;;;3.75;;
42296;SDS011;28985;47.456;19.016;2022-08-21T06:00:46;4.93;;;4.53;;
42296;SDS011;28985;47.456;19.016;2022-08-21T06:03:15;4.50;;;4.07;;
42296;SDS011;28985;47.456;19.016;2022-08-21T06:05:44;4.10;;;3.78;;
42296;SDS011;28985;47.456;19.016;2022-08-21T06:08:12;5.65;;;4.32;;
42296;SDS011;28985;47.456;19.016;2022-08-21T06:10:39;5.90;;;5.30;;
42296;SDS011;28985;47.456;19.016;2022-08-21T06:13:06;6.55;;;6.15;;
42296;SDS011;28985;47.456;19.016;2022-08-21T06:15:32;5.07;;;4.65;;
42296;SDS011;28985;47.456;19.016;2022-08-21T06:17:59;5.07;;;4.57;;
42296;SDS011;28985;47.456;19.016;2022-08-21T06:20:26;5.22;;;4.82;;
42296;SDS011;28985;47.456;19.016;2022-08-21T06:22:52;6.63;;;5.82;;
42296;SDS011;28985;47.456;19.016;2022-08-21T06:25:19;7.28;;;6.70;;
42296;SDS011;28985;47.456;19.016;2022-08-21T06:27:46;9.32;;;8.82;;
42296;SDS011;28985;47.456;19.016;2022-08-21T06:30:13;10.40;;;9.70;;
42296;SDS011;28985;47.456;19.016;2022-08-21T06:32:40;8.95;;;8.45;;
42296;SDS011;28985;47.456;19.016;2022-08-21T06:35:07;12.38;;;11.57;;
42296;SDS011;28985;47.456;19.016;2022-08-21T06:37:34;14.50;;;13.60;;
42296;SDS011;28985;47.456;19.016;2022-08-21T06:40:00;14.05;;;13.35;;
42296;SDS011;28985;47.456;19.016;2022-08-21T06:42:29;16.33;;;15.48;;
42296;SDS011;28985;47.456;19.016;2022-08-21T06:44:57;16.10;;;14.98;;
42296;SDS011;28985;47.456;19.016;2022-08-21T06:47:24;16.75;;;15.82;;
42296;SDS011;28985;47.456;19.016;2022-08-21T06:49:51;19.15;;;18.17;;
42296;SDS011;28985;47.456;19.016;2022-08-21T06:52:18;16.15;;;15.25;;
42296;SDS011;28985;47.456;19.016;2022-08-21T06:54:45;17.33;;;16.52;;
42296;SDS011;28985;47.456;19.016;2022-08-21T06:57:11;17.75;;;16.92;;
42296;SDS011;28985;47.456;19.016;2022-08-21T06:59:38;19.23;;;18.13;;
42296;SDS011;28985;47.456;19.016;2022-08-21T07:02:05;17.92;;;17.13;;
42296;SDS011;28985;47.456;19.016;2022-08-21T07:04:31;16.48;;;15.07;;
42296;SDS011;28985;47.456;19.016;2022-08-21T07:06:58;17.15;;;16.08;;
42296;SDS011;28985;47.456;19.016;2022-08-21T07:09:24;15.57;;;14.43;;
42296;SDS011;28985;47.456;19.016;2022-08-21T07:11:52;16.50;;;15.50;;
42296;SDS011;28985;47.456;19.016;2022-08-21T07:14:21;16.33;;;15.52;;
42296;SDS011;28985;47.456;19.016;2022-08-21T07:16:48;14.65;;;13.95;;
42296;SDS011;28985;47.456;19.016;2022-08-21T07:19:15;13.73;;;13.02;;
42296;SDS011;28985;47.456;19.016;2022-08-21T07:21:42;15.85;;;15.05;;
42296;SDS011;28985;47.456;19.016;2022-08-21T07:24:08;17.85;;;16.95;;
42296;SDS011;28985;47.456;19.016;2022-08-21T07:26:36;15.95;;;15.05;;
42296;SDS011;28985;47.456;19.016;2022-08-21T07:29:03;15.82;;;15.05;;
42296;SDS011;28985;47.456;19.016;2022-08-21T07:31:30;18.45;;;17.30;;
42296;SDS011;28985;47.456;19.016;2022-08-21T07:33:57;15.20;;;14.05;;
42296;SDS011;28985;47.456;19.016;2022-08-21T07:36:24;12.20;;;11.40;;
42296;SDS011;28985;47.456;19.016;2022-08-21T07:38:51;13.48;;;12.48;;
42296;SDS011;28985;47.456;19.016;2022-08-21T07:41:19;12.70;;;12.10;;
42296;SDS011;28985;47.456;19.016;2022-08-21T07:43:48;13.75;;;12.75;;
42296;SDS011;28985;47.456;19.016;2022-08-21T07:46:18;11.93;;;11.05;;
42296;SDS011;28985;47.456;19.016;2022-08-21T07:48:44;13.02;;;12.20;;
42296;SDS011;28985;47.456;19.016;2022-08-21T07:51:12;15.00;;;14.38;;
42296;SDS011;28985;47.456;19.016;2022-08-21T07:53:41;19.73;;;18.83;;
42296;SDS011;28985;47.456;19.016;2022-08-21T07:56:08;20.70;;;19.50;;
42296;SDS011;28985;47.456;19.016;2022-08-21T07:58:37;29.17;;;27.80;;
42296;SDS011;28985;47.456;19.016;2022-08-21T08:01:05;43.75;;;41.97;;
42296;SDS011;28985;47.456;19.016;2022-08-21T08:03:33;41.42;;;39.55;;
42296;SDS011;28985;47.456;19.016;2022-08-21T08:06:00;47.83;;;45.92;;
42296;SDS011;28985;47.456;19.016;2022-08-21T08:08:27;46.67;;;44.63;;
42296;SDS011;28985;47.456;19.016;2022-08-21T08:10:54;44.47;;;42.67;;
42296;SDS011;28985;47.456;19.016;2022-08-21T08:13:23;55.47;;;53.17;;
42296;SDS011;28985;47.456;19.016;2022-08-21T08:15:50;56.90;;;54.33;;
42296;SDS011;28985;47.456;19.016;2022-08-21T08:18:17;71.22;;;68.43;;
42296;SDS011;28985;47.456;19.016;2022-08-21T08:20:44;80.63;;;77.38;;
42296;SDS011;28985;47.456;19.016;2022-08-21T08:23:11;74.68;;;71.63;;
42296;SDS011;28985;47.456;19.016;2022-08-21T08:25:39;60.30;;;57.72;;
42296;SDS011;28985;47.456;19.016;2022-08-21T08:28:07;77.10;;;73.90;;
42296;SDS011;28985;47.456;19.016;2022-08-21T08:30:43;83.65;;;80.25;;
42296;SDS011;28985;47.456;19.016;2022-08-21T08:33:10;73.75;;;70.72;;
42296;SDS011;28985;47.456;19.016;2022-08-21T08:35:37;89.70;;;85.88;;
42296;SDS011;28985;47.456;19.016;2022-08-21T08:38:04;84.15;;;80.65;;
42296;SDS011;28985;47.456;19.016;2022-08-21T08:40:46;93.38;;;89.82;;
42296;SDS011;28985;47.456;19.016;2022-08-21T08:43:19;97.63;;;93.65;;
42296;SDS011;28985;47.456;19.016;2022-08-21T08:45:48;140.02;;;134.32;;
42296;SDS011;28985;47.456;19.016;2022-08-21T08:48:36;137.50;;;132.02;;
42296;SDS011;28985;47.456;19.016;2022-08-21T08:51:22;136.60;;;130.88;;
42296;SDS011;28985;47.456;19.016;2022-08-21T08:54:07;158.02;;;151.70;;
42296;SDS011;28985;47.456;19.016;2022-08-21T08:56:38;176.85;;;169.95;;
42296;SDS011;28985;47.456;19.016;2022-08-21T08:59:15;185.52;;;178.38;;
42296;SDS011;28985;47.456;19.016;2022-08-21T09:01:45;201.85;;;193.80;;
42296;SDS011;28985;47.456;19.016;2022-08-21T09:04:12;227.77;;;219.02;;
42296;SDS011;28985;47.456;19.016;2022-08-21T09:15:09;259.50;;;249.50;;
42296;SDS011;28985;47.456;19.016;2022-08-21T09:23:06;261.63;;;251.75;;
42296;SDS011;28985;47.456;19.016;2022-08-21T09:26:08;311.90;;;299.45;;
42296;SDS011;28985;47.456;19.016;2022-08-21T09:28:39;276.20;;;265.38;;
42296;SDS011;28985;47.456;19.016;2022-08-21T09:31:14;451.33;;;421.80;;
42296;SDS011;28985;47.456;19.016;2022-08-21T09:33:48;791.83;;;726.88;;
42296;SDS011;28985;47.456;19.016;2022-08-21T09:36:22;321.15;;;308.50;;
42296;SDS011;28985;47.456;19.016;2022-08-21T09:38:53;333.73;;;320.50;;
42296;SDS011;28985;47.456;19.016;2022-08-21T09:41:26;354.83;;;340.73;;
42296;SDS011;28985;47.456;19.016;2022-08-21T09:43:54;368.55;;;353.70;;
42296;SDS011;28985;47.456;19.016;2022-08-21T09:46:22;405.23;;;388.48;;
42296;SDS011;28985;47.456;19.016;2022-08-21T09:48:52;430.25;;;412.15;;
42296;SDS011;28985;47.456;19.016;2022-08-21T09:59:25;454.42;;;435.13;;
42296;SDS011;28985;47.456;19.016;2022-08-21T10:02:03;419.50;;;402.15;;
42296;SDS011;28985;47.456;19.016;2022-08-21T10:05:22;437.33;;;418.73;;
42296;SDS011;28985;47.456;19.016;2022-08-21T10:07:50;438.42;;;419.88;;
42296;SDS011;28985;47.456;19.016;2022-08-21T10:10:22;462.70;;;442.88;;
42296;SDS011;28985;47.456;19.016;2022-08-21T10:18:41;440.90;;;422.08;;
42296;SDS011;28985;47.456;19.016;2022-08-21T10:21:15;450.00;;;431.00;;
42296;SDS011;28985;47.456;19.016;2022-08-21T10:35:01;460.30;;;440.75;;
42296;SDS011;28985;47.456;19.016;2022-08-21T10:43:21;432.52;;;414.38;;
42296;SDS011;28985;47.456;19.016;2022-08-21T10:46:04;491.35;;;469.95;;
42296;SDS011;28985;47.456;19.016;2022-08-21T10:48:42;427.85;;;409.88;;
42296;SDS011;28985;47.456;19.016;2022-08-21T10:51:26;430.53;;;412.43;;
42296;SDS011;28985;47.456;19.016;2022-08-21T10:56:35;493.77;;;472.33;;
42296;SDS011;28985;47.456;19.016;2022-08-21T11:04:46;469.48;;;449.27;;
42296;SDS011;28985;47.456;19.016;2022-08-21T11:07:19;483.67;;;462.70;;
42296;SDS011;28985;47.456;19.016;2022-08-21T11:09:58;479.77;;;459.08;;
42296;SDS011;28985;47.456;19.016;2022-08-21T11:12:44;500.98;;;479.05;;
42296;SDS011;28985;47.456;19.016;2022-08-21T11:15:23;490.60;;;469.40;;
42296;SDS011;28985;47.456;19.016;2022-08-21T11:18:10;481.77;;;460.83;;
42296;SDS011;28985;47.456;19.016;2022-08-21T11:21:15;499.48;;;477.40;;
42296;SDS011;28985;47.456;19.016;2022-08-21T11:30:03;477.95;;;457.35;;
42296;SDS011;28985;47.456;19.016;2022-08-21T11:35:28;469.30;;;449.23;;
42296;SDS011;28985;47.456;19.016;2022-08-21T11:38:15;492.92;;;471.45;;
42296;SDS011;28985;47.456;19.016;2022-08-21T11:43:27;492.63;;;471.17;;
42296;SDS011;28985;47.456;19.016;2022-08-21T11:51:50;501.35;;;479.52;;
42296;SDS011;28985;47.456;19.016;2022-08-21T11:56:58;479.33;;;458.35;;
42296;SDS011;28985;47.456;19.016;2022-08-21T11:59:39;469.42;;;449.42;;
42296;SDS011;28985;47.456;19.016;2022-08-21T12:02:12;456.65;;;437.23;;
42296;SDS011;28985;47.456;19.016;2022-08-21T12:04:44;482.38;;;461.45;;
42296;SDS011;28985;47.456;19.016;2022-08-21T12:07:28;501.25;;;479.25;;
42296;SDS011;28985;47.456;19.016;2022-08-21T12:10:06;462.63;;;443.08;;
42296;SDS011;28985;47.456;19.016;2022-08-21T12:12:37;488.08;;;466.83;;
42296;SDS011;28985;47.456;19.016;2022-08-21T12:17:38;452.20;;;433.17;;
42296;SDS011;28985;47.456;19.016;2022-08-21T12:20:21;472.23;;;451.75;;
42296;SDS011;28985;47.456;19.016;2022-08-21T12:22:53;451.55;;;432.60;;
42296;SDS011;28985;47.456;19.016;2022-08-21T12:25:36;485.00;;;463.60;;
42296;SDS011;28985;47.456;19.016;2022-08-21T12:28:08;476.08;;;455.52;;
42296;SDS011;28985;47.456;19.016;2022-08-21T12:30:38;471.65;;;451.27;;
42296;SDS011;28985;47.456;19.016;2022-08-21T12:38:50;457.48;;;438.13;;
42296;SDS011;28985;47.456;19.016;2022-08-21T12:41:20;467.25;;;447.05;;
42296;SDS011;28985;47.456;19.016;2022-08-21T12:44:56;459.85;;;440.08;;
42296;SDS011;28985;47.456;19.016;2022-08-21T12:47:13;445.70;;;426.85;;
42296;SDS011;28985;47.456;19.016;2022-08-21T12:49:51;439.77;;;421.23;;
42296;SDS011;28985;47.456;19.016;2022-08-21T12:55:45;463.67;;;443.67;;
42296;SDS011;28985;47.456;19.016;2022-08-21T12:58:21;459.65;;;439.90;;
42296;SDS011;28985;47.456;19.016;2022-08-21T13:00:55;454.55;;;435.35;;
42296;SDS011;28985;47.456;19.016;2022-08-21T13:03:26;450.85;;;431.70;;
42296;SDS011;28985;47.456;19.016;2022-08-21T13:05:54;448.17;;;429.10;;
42296;SDS011;28985;47.456;19.016;2022-08-21T13:08:21;453.08;;;433.83;;
42296;SDS011;28985;47.456;19.016;2022-08-21T13:10:52;445.73;;;426.73;;
42296;SDS011;28985;47.456;19.016;2022-08-21T13:13:34;452.23;;;433.00;;
42296;SDS011;28985;47.456;19.016;2022-08-21T13:16:11;442.20;;;423.48;;
42296;SDS011;28985;47.456;19.016;2022-08-21T13:18:51;457.92;;;438.48;;
42296;SDS011;28985;47.456;19.016;2022-08-21T13:30:09;381.23;;;365.45;;
42296;SDS011;28985;47.456;19.016;2022-08-21T13:32:48;397.55;;;381.25;;
42296;SDS011;28985;47.456;19.016;2022-08-21T13:35:22;409.48;;;392.67;;
42296;SDS011;28985;47.456;19.016;2022-08-21T13:37:52;396.33;;;380.15;;
42296;SDS011;28985;47.456;19.016;2022-08-21T13:41:04;428.52;;;410.42;;
42296;SDS011;28985;47.456;19.016;2022-08-21T13:43:17;351.50;;;337.75;;
42296;SDS011;28985;47.456;19.016;2022-08-21T13:45:48;386.17;;;370.35;;
42296;SDS011;28985;47.456;19.016;2022-08-21T13:48:16;382.30;;;366.98;;
42296;SDS011;28985;47.456;19.016;2022-08-21T13:50:44;399.77;;;383.58;;
42296;SDS011;28985;47.456;19.016;2022-08-21T13:53:28;368.23;;;353.48;;
42296;SDS011;28985;47.456;19.016;2022-08-21T13:56:00;345.40;;;331.98;;
42296;SDS011;28985;47.456;19.016;2022-08-21T13:58:29;318.23;;;306.10;;
42296;SDS011;28985;47.456;19.016;2022-08-21T14:01:17;231.20;;;222.32;;
42296;SDS011;28985;47.456;19.016;2022-08-21T14:03:47;176.55;;;169.70;;
42296;SDS011;28985;47.456;19.016;2022-08-21T14:06:18;154.63;;;148.35;;
42296;SDS011;28985;47.456;19.016;2022-08-21T14:08:49;139.50;;;134.35;;
42296;SDS011;28985;47.456;19.016;2022-08-21T14:11:19;137.77;;;132.43;;
42296;SDS011;28985;47.456;19.016;2022-08-21T14:13:51;132.95;;;127.75;;
42296;SDS011;28985;47.456;19.016;2022-08-21T14:16:25;133.80;;;127.80;;
42296;SDS011;28985;47.456;19.016;2022-08-21T14:24:02;124.38;;;119.32;;
42296;SDS011;28985;47.456;19.016;2022-08-21T14:27:06;126.20;;;120.85;;
42296;SDS011;28985;47.456;19.016;2022-08-21T14:29:37;137.82;;;132.32;;
42296;SDS011;28985;47.456;19.016;2022-08-21T14:34:50;146.70;;;141.07;;
42296;SDS011;28985;47.456;19.016;2022-08-21T14:37:19;146.80;;;141.23;;
42296;SDS011;28985;47.456;19.016;2022-08-21T14:39:46;132.40;;;126.80;;
42296;SDS011;28985;47.456;19.016;2022-08-21T14:42:12;105.68;;;101.75;;
42296;SDS011;28985;47.456;19.016;2022-08-21T14:44:39;81.47;;;78.22;;
42296;SDS011;28985;47.456;19.016;2022-08-21T14:47:06;68.63;;;65.70;;
42296;SDS011;28985;47.456;19.016;2022-08-21T14:49:33;50.50;;;48.53;;
42296;SDS011;28985;47.456;19.016;2022-08-21T14:52:00;34.65;;;33.28;;
42296;SDS011;28985;47.456;19.016;2022-08-21T14:54:27;28.27;;;27.17;;
42296;SDS011;28985;47.456;19.016;2022-08-21T14:57:07;17.25;;;16.42;;
42296;SDS011;28985;47.456;19.016;2022-08-21T14:59:36;15.88;;;15.02;;
42296;SDS011;28985;47.456;19.016;2022-08-21T15:02:04;13.90;;;13.30;;
42296;SDS011;28985;47.456;19.016;2022-08-21T15:04:32;15.68;;;14.93;;
42296;SDS011;28985;47.456;19.016;2022-08-21T15:06:59;16.40;;;15.77;;
42296;SDS011;28985;47.456;19.016;2022-08-21T15:09:26;16.88;;;16.17;;
42296;SDS011;28985;47.456;19.016;2022-08-21T15:11:55;19.20;;;18.48;;
42296;SDS011;28985;47.456;19.016;2022-08-21T15:14:26;17.77;;;16.98;;
42296;SDS011;28985;47.456;19.016;2022-08-21T15:16:55;16.20;;;15.40;;
42296;SDS011;28985;47.456;19.016;2022-08-21T15:19:22;21.77;;;20.67;;
42296;SDS011;28985;47.456;19.016;2022-08-21T15:21:50;23.15;;;22.25;;
42296;SDS011;28985;47.456;19.016;2022-08-21T15:24:16;19.42;;;18.42;;
42296;SDS011;28985;47.456;19.016;2022-08-21T15:26:43;20.65;;;19.85;;
42296;SDS011;28985;47.456;19.016;2022-08-21T15:29:11;22.10;;;20.80;;
42296;SDS011;28985;47.456;19.016;2022-08-21T15:31:39;20.98;;;20.17;;
42296;SDS011;28985;47.456;19.016;2022-08-21T15:34:18;19.98;;;19.10;;
42296;SDS011;28985;47.456;19.016;2022-08-21T15:36:44;19.40;;;18.52;;
42296;SDS011;28985;47.456;19.016;2022-08-21T15:39:11;22.02;;;20.95;;
42296;SDS011;28985;47.456;19.016;2022-08-21T15:41:38;24.33;;;23.42;;
42296;SDS011;28985;47.456;19.016;2022-08-21T15:44:04;24.65;;;23.70;;
42296;SDS011;28985;47.456;19.016;2022-08-21T15:46:31;23.98;;;22.95;;
42296;SDS011;28985;47.456;19.016;2022-08-21T15:48:58;23.70;;;22.67;;
42296;SDS011;28985;47.456;19.016;2022-08-21T15:51:25;22.83;;;21.92;;
42296;SDS011;28985;47.456;19.016;2022-08-21T15:53:51;28.85;;;27.75;;
42296;SDS011;28985;47.456;19.016;2022-08-21T15:56:26;27.77;;;26.67;;
42296;SDS011;28985;47.456;19.016;2022-08-21T15:58:58;24.48;;;23.58;;
42296;SDS011;28985;47.456;19.016;2022-08-21T16:01:27;26.20;;;25.13;;
42296;SDS011;28985;47.456;19.016;2022-08-21T16:04:09;25.42;;;24.33;;
42296;SDS011;28985;47.456;19.016;2022-08-21T16:06:36;27.52;;;26.33;;
42296;SDS011;28985;47.456;19.016;2022-08-21T16:09:22;25.27;;;24.20;;
42296;SDS011;28985;47.456;19.016;2022-08-21T16:11:49;23.13;;;22.13;;
42296;SDS011;28985;47.456;19.016;2022-08-21T16:14:17;23.63;;;22.60;;
42296;SDS011;28985;47.456;19.016;2022-08-21T16:16:45;25.23;;;24.13;;